createdAt,value
2017-09-20T00:00:14.480Z,77.40
2017-09-20T00:02:42.579Z,77.20
2017-09-20T00:05:10.727Z,77.20
2017-09-20T00:07:40.035Z,77.10
2017-09-20T00:10:08.162Z,77.00
2017-09-20T00:12:36.300Z,77.00
2017-09-20T00:15:05.129Z,77.50
2017-09-20T00:17:33.267Z,77.50
2017-09-20T00:20:02.189Z,77.30
2017-09-20T00:22:30.413Z,77.30
2017-09-20T00:24:58.662Z,77.70
2017-09-20T00:27:26.792Z,77.00
2017-09-20T00:29:55.706Z,77.20
2017-09-20T00:32:23.827Z,77.20
2017-09-20T00:34:51.968Z,77.00
2017-09-20T00:37:20.099Z,77.00
2017-09-20T00:39:49.009Z,77.10
2017-09-20T00:42:17.128Z,77.10
2017-09-20T00:44:45.269Z,76.90
2017-09-20T00:47:13.396Z,76.90
2017-09-20T00:49:42.289Z,77.10
2017-09-20T00:52:11.202Z,77.00
2017-09-20T00:54:39.323Z,77.00
2017-09-20T00:57:07.472Z,77.00
2017-09-20T00:59:35.597Z,76.90
2017-09-20T01:02:04.488Z,77.00
2017-09-20T01:04:33.392Z,77.00
2017-09-20T01:07:01.531Z,76.90
2017-09-20T01:09:29.780Z,76.80
2017-09-20T01:11:57.904Z,76.80
2017-09-20T01:14:26.048Z,76.90
2017-09-20T01:16:54.175Z,77.00
2017-09-20T01:19:22.316Z,77.20
2017-09-20T01:22:02.936Z,77.50
2017-09-20T01:24:31.080Z,77.40
2017-09-20T01:26:59.213Z,77.50
2017-09-20T01:29:28.099Z,78.20
2017-09-20T01:31:57.015Z,77.80
2017-09-20T01:34:25.141Z,77.80
2017-09-20T01:36:53.281Z,78.00
2017-09-20T01:39:21.440Z,78.20
2017-09-20T01:41:49.600Z,78.10
2017-09-20T01:44:18.496Z,79.20
2017-09-20T01:46:46.633Z,79.20
2017-09-20T01:49:14.772Z,79.50
2017-09-20T01:51:42.913Z,79.50
2017-09-20T01:54:11.069Z,79.40
2017-09-20T01:56:39.959Z,80.60
2017-09-20T01:59:08.864Z,80.50
2017-09-20T02:01:37.009Z,80.50
2017-09-20T02:04:05.186Z,80.40
2017-09-20T02:06:33.311Z,79.70
2017-09-20T02:09:01.482Z,80.70
2017-09-20T02:11:29.623Z,80.90
2017-09-20T02:13:58.549Z,80.70
2017-09-20T02:16:26.685Z,80.60
2017-09-20T02:18:54.844Z,80.90
2017-09-20T02:21:23.751Z,81.20
2017-09-20T02:23:52.659Z,80.50
2017-09-20T02:26:20.792Z,80.50
2017-09-20T02:28:49.704Z,81.40
2017-09-20T02:31:17.832Z,81.40
2017-09-20T02:33:45.989Z,81.00
2017-09-20T02:36:14.161Z,80.40
2017-09-20T02:38:42.301Z,80.10
2017-09-20T02:41:10.460Z,80.40
2017-09-20T02:43:39.344Z,80.70
2017-09-20T02:46:08.270Z,81.40
2017-09-20T02:48:36.416Z,81.40
2017-09-20T02:51:04.556Z,81.20
2017-09-20T02:53:33.485Z,81.70
2017-09-20T02:56:02.364Z,81.70
2017-09-20T02:58:30.489Z,81.60
2017-09-20T03:00:58.692Z,82.30
2017-09-20T03:03:27.581Z,81.30
2017-09-20T03:05:56.516Z,81.30
2017-09-20T03:08:24.655Z,81.30
2017-09-20T03:10:53.567Z,81.30
2017-09-20T03:13:21.718Z,81.30
2017-09-20T03:15:50.624Z,81.40
2017-09-20T03:18:18.772Z,81.30
2017-09-20T03:20:47.701Z,82.50
2017-09-20T03:23:15.841Z,82.40
2017-09-20T03:25:44.760Z,82.00
2017-09-20T03:28:12.892Z,82.00
2017-09-20T03:30:41.053Z,81.10
2017-09-20T03:33:09.220Z,80.50
2017-09-20T03:35:37.381Z,80.50
2017-09-20T03:38:05.500Z,80.70
2017-09-20T03:40:33.661Z,80.90
2017-09-20T03:43:02.573Z,80.40
2017-09-20T03:45:30.717Z,80.40
2017-09-20T03:47:59.631Z,80.80
2017-09-20T03:50:27.777Z,80.40
2017-09-20T03:52:55.907Z,80.00
2017-09-20T03:55:24.057Z,79.70
2017-09-20T03:57:52.195Z,79.60
2017-09-20T04:00:21.868Z,79.50
2017-09-20T04:02:49.989Z,79.50
2017-09-20T04:05:18.915Z,79.20
2017-09-20T04:07:47.041Z,79.20
2017-09-20T04:10:15.170Z,79.40
2017-09-20T04:12:44.097Z,79.70
2017-09-20T04:15:12.228Z,79.30
2017-09-20T04:17:40.395Z,79.40
2017-09-20T04:20:08.531Z,79.10
2017-09-20T04:22:37.455Z,79.20
2017-09-20T04:25:05.587Z,79.20
2017-09-20T04:27:34.508Z,79.30
2017-09-20T04:30:02.650Z,79.20
2017-09-20T04:32:31.547Z,79.20
2017-09-20T04:35:00.472Z,80.50
2017-09-20T04:37:28.607Z,80.40
2017-09-20T04:39:57.529Z,80.00
2017-09-20T04:42:25.659Z,80.00
2017-09-20T04:44:53.819Z,79.80
2017-09-20T04:47:21.932Z,79.70
2017-09-20T04:49:50.097Z,79.60
2017-09-20T04:52:18.984Z,79.60
2017-09-20T04:54:47.892Z,79.70
2017-09-20T04:57:16.035Z,79.70
2017-09-20T04:59:44.944Z,79.50
2017-09-20T05:02:13.873Z,79.30
2017-09-20T05:04:42.001Z,79.30
2017-09-20T05:07:10.904Z,79.50
2017-09-20T05:09:39.035Z,79.50
2017-09-20T05:12:07.197Z,79.40
2017-09-20T05:14:35.342Z,79.60
2017-09-20T05:17:03.591Z,80.60
2017-09-20T05:19:31.728Z,81.10
2017-09-20T05:21:59.876Z,82.00
2017-09-20T05:24:28.009Z,82.00
2017-09-20T05:26:56.160Z,81.80
2017-09-20T05:29:25.056Z,82.70
2017-09-20T05:31:53.981Z,82.70
2017-09-20T05:34:22.110Z,82.70
2017-09-20T05:36:51.028Z,83.20
2017-09-20T05:39:19.923Z,83.20
2017-09-20T05:41:48.064Z,83.10
2017-09-20T05:44:16.989Z,83.00
2017-09-20T05:46:45.888Z,82.00
2017-09-20T05:49:14.041Z,81.80
2017-09-20T05:51:42.176Z,81.60
2017-09-20T05:54:10.364Z,82.00
2017-09-20T05:56:39.256Z,82.60
2017-09-20T05:59:08.173Z,82.40
2017-09-20T06:01:36.306Z,82.30
2017-09-20T06:04:04.457Z,82.20
2017-09-20T06:06:32.602Z,82.20
2017-09-20T06:09:00.759Z,81.70
2017-09-20T06:11:29.680Z,80.50
2017-09-20T06:13:57.808Z,80.30
2017-09-20T06:16:26.718Z,81.20
2017-09-20T06:18:54.856Z,81.20
2017-09-20T06:21:22.986Z,80.50
2017-09-20T06:23:51.121Z,80.10
2017-09-20T06:26:19.273Z,79.30
2017-09-20T06:28:48.183Z,79.50
2017-09-20T06:31:16.329Z,79.50
2017-09-20T06:33:44.485Z,79.20
2017-09-20T06:36:12.613Z,78.00
2017-09-20T06:38:40.771Z,78.20
2017-09-20T06:41:10.687Z,77.10
2017-09-20T06:43:38.825Z,77.10
2017-09-20T06:46:06.982Z,77.40
2017-09-20T06:48:35.700Z,77.70
2017-09-20T06:51:04.634Z,78.30
2017-09-20T06:53:32.783Z,78.30
2017-09-20T06:56:01.703Z,79.20
2017-09-20T06:58:29.827Z,79.20
2017-09-20T07:00:58.725Z,78.90
2017-09-20T07:03:27.656Z,79.20
2017-09-20T07:05:55.776Z,78.60
2017-09-20T07:08:24.699Z,78.20
2017-09-20T07:10:52.828Z,78.10
2017-09-20T07:13:21.943Z,79.00
2017-09-20T07:15:50.846Z,78.70
2017-09-20T07:18:19.733Z,79.00
2017-09-20T07:20:47.887Z,79.00
2017-09-20T07:23:16.805Z,78.80
2017-09-20T07:25:46.181Z,78.70
2017-09-20T07:28:14.313Z,77.60
2017-09-20T07:30:42.456Z,77.60
2017-09-20T07:33:10.614Z,77.80
2017-09-20T07:35:39.541Z,77.50
2017-09-20T07:38:07.667Z,77.40
2017-09-20T07:40:36.584Z,77.10
2017-09-20T07:43:05.495Z,77.20
2017-09-20T07:45:33.612Z,77.20
2017-09-20T07:48:02.561Z,77.00
2017-09-20T07:50:31.528Z,77.00
2017-09-20T07:53:00.441Z,76.30
2017-09-20T07:55:28.575Z,76.30
2017-09-20T07:57:57.492Z,75.90
2017-09-20T08:00:25.633Z,75.90
2017-09-20T08:02:54.544Z,76.60
2017-09-20T08:05:22.703Z,76.60
2017-09-20T08:07:50.884Z,76.20
2017-09-20T08:10:19.033Z,77.70
2017-09-20T08:12:47.936Z,77.90
2017-09-20T08:15:16.073Z,77.90
2017-09-20T08:17:44.219Z,76.70
2017-09-20T08:20:12.356Z,77.70
2017-09-20T08:22:40.497Z,77.40
2017-09-20T08:25:08.625Z,76.70
2017-09-20T08:27:36.782Z,76.40
2017-09-20T08:30:04.914Z,76.00
2017-09-20T08:32:33.069Z,76.50
2017-09-20T08:35:01.197Z,76.90
2017-09-20T08:37:29.381Z,77.00
2017-09-20T08:39:57.520Z,76.00
2017-09-20T08:42:26.428Z,75.90
2017-09-20T08:44:54.566Z,75.80
2017-09-20T08:47:22.691Z,75.50
2017-09-20T08:49:50.845Z,75.70
2017-09-20T08:52:18.977Z,75.90
2017-09-20T08:54:47.148Z,76.30
2017-09-20T08:57:15.281Z,76.50
2017-09-20T08:59:43.440Z,76.50
2017-09-20T09:02:11.572Z,75.00
2017-09-20T09:04:39.721Z,74.70
2017-09-20T09:07:07.852Z,74.40
2017-09-20T09:09:36.769Z,74.60
2017-09-20T09:12:04.918Z,74.60
2017-09-20T09:14:33.053Z,75.00
2017-09-20T09:17:01.196Z,74.90
2017-09-20T09:19:29.345Z,74.50
2017-09-20T09:21:57.506Z,74.70
2017-09-20T09:24:25.637Z,74.30
2017-09-20T09:26:53.765Z,73.70
2017-09-20T09:29:23.264Z,73.60
2017-09-20T09:31:52.163Z,72.20
2017-09-20T09:34:21.080Z,73.00
2017-09-20T09:36:49.214Z,73.00
2017-09-20T09:39:17.340Z,72.50
2017-09-20T09:41:45.509Z,72.80
2017-09-20T09:44:13.633Z,72.00
2017-09-20T09:46:42.560Z,71.70
2017-09-20T09:49:10.828Z,71.70
2017-09-20T09:51:40.159Z,70.50
2017-09-20T09:54:08.299Z,71.30
2017-09-20T09:56:36.437Z,70.60
2017-09-20T09:59:05.358Z,71.70
2017-09-20T10:01:33.500Z,71.10
2017-09-20T10:04:01.629Z,70.70
2017-09-20T10:06:29.776Z,71.20
2017-09-20T10:08:57.909Z,70.70
2017-09-20T10:11:26.061Z,70.40
2017-09-20T10:13:54.187Z,70.70
2017-09-20T10:16:22.341Z,68.80
2017-09-20T10:18:51.249Z,69.30
2017-09-20T10:21:19.404Z,69.20
2017-09-20T10:23:48.345Z,69.20
2017-09-20T10:26:16.478Z,69.20
2017-09-20T10:28:45.400Z,69.00
2017-09-20T10:31:13.542Z,68.90
2017-09-20T10:33:42.457Z,68.50
2017-09-20T10:36:10.631Z,68.50
2017-09-20T10:38:38.783Z,67.60
2017-09-20T10:41:06.949Z,68.40
2017-09-20T10:43:35.861Z,67.60
2017-09-20T10:46:04.003Z,67.50
2017-09-20T10:48:32.920Z,66.60
2017-09-20T10:51:01.061Z,66.50
2017-09-20T10:53:29.973Z,66.60
2017-09-20T10:55:58.116Z,66.60
2017-09-20T10:58:26.268Z,68.00
2017-09-20T11:00:54.419Z,65.80
2017-09-20T11:03:23.336Z,65.90
2017-09-20T11:05:51.461Z,65.90
2017-09-20T11:08:19.596Z,64.70
2017-09-20T11:10:47.727Z,64.70
2017-09-20T11:13:15.899Z,64.90
2017-09-20T11:15:44.042Z,65.50
2017-09-20T11:18:12.943Z,65.90
2017-09-20T11:20:41.088Z,65.90
2017-09-20T11:23:10.007Z,66.30
2017-09-20T11:25:38.137Z,66.20
2017-09-20T11:28:06.289Z,67.00
2017-09-20T11:30:34.410Z,65.20
2017-09-20T11:33:02.570Z,64.00
2017-09-20T11:35:31.480Z,65.20
2017-09-20T11:37:59.616Z,65.20
2017-09-20T11:40:27.766Z,64.80
2017-09-20T11:42:55.918Z,64.70
2017-09-20T11:45:24.056Z,65.30
2017-09-20T11:47:52.204Z,65.10
2017-09-20T11:50:20.343Z,65.60
2017-09-20T11:52:48.480Z,65.90
2017-09-20T11:55:16.646Z,66.70
2017-09-20T11:57:45.532Z,65.50
2017-09-20T12:00:13.764Z,65.50
2017-09-20T12:02:41.887Z,65.50
2017-09-20T12:05:10.933Z,66.10
2017-09-20T12:07:39.104Z,66.20
2017-09-20T12:10:07.242Z,65.80
2017-09-20T12:12:36.002Z,64.60
2017-09-20T12:15:04.924Z,65.90
2017-09-20T12:17:33.077Z,66.00
2017-09-20T12:20:01.858Z,66.40
2017-09-20T12:22:30.770Z,64.60
2017-09-20T12:24:58.903Z,64.60
2017-09-20T12:27:27.820Z,65.40
2017-09-20T12:29:55.984Z,65.40
2017-09-20T12:32:24.894Z,65.10
2017-09-20T12:34:53.021Z,65.10
2017-09-20T12:37:21.164Z,65.10
2017-09-20T12:39:49.308Z,62.40
2017-09-20T12:42:17.457Z,63.10
2017-09-20T12:44:46.376Z,63.30
2017-09-20T12:47:14.521Z,63.20
2017-09-20T12:49:43.435Z,64.00
2017-09-20T12:52:11.616Z,64.00
2017-09-20T12:54:39.763Z,63.30
2017-09-20T12:57:08.663Z,65.30
2017-09-20T12:59:36.804Z,65.30
2017-09-20T13:02:04.960Z,65.30
2017-09-20T13:04:33.365Z,65.40
2017-09-20T13:07:01.941Z,65.00
2017-09-20T13:09:30.079Z,63.70
2017-09-20T13:11:58.245Z,63.80
2017-09-20T13:14:26.405Z,63.30
2017-09-20T13:16:54.573Z,63.10
2017-09-20T13:19:22.697Z,63.20
2017-09-20T13:21:50.849Z,61.50
2017-09-20T13:24:18.985Z,60.70
2017-09-20T13:26:47.148Z,61.00
2017-09-20T13:29:16.075Z,57.60
2017-09-20T13:31:44.211Z,57.50
2017-09-20T13:34:12.354Z,54.40
2017-09-20T13:36:41.251Z,51.60
2017-09-20T13:39:10.173Z,51.50
2017-09-20T13:41:38.309Z,51.50
2017-09-20T13:44:07.215Z,54.70
2017-09-20T13:46:36.138Z,56.60
2017-09-20T13:49:05.188Z,56.60
2017-09-20T13:51:34.110Z,60.20
2017-09-20T13:54:02.249Z,60.20
2017-09-20T13:56:32.015Z,61.60
2017-09-20T13:59:00.132Z,61.60
2017-09-20T14:01:29.058Z,54.90
2017-09-20T14:03:57.191Z,54.70
2017-09-20T14:06:26.849Z,51.00
2017-09-20T14:08:55.087Z,50.90
2017-09-20T14:11:23.982Z,53.50
2017-09-20T14:13:52.158Z,53.40
2017-09-20T14:16:20.277Z,55.30
2017-09-20T14:18:48.429Z,56.80
2017-09-20T14:21:16.571Z,58.80
2017-09-20T14:23:44.715Z,58.30
2017-09-20T14:26:12.853Z,56.50
2017-09-20T14:28:40.984Z,53.90
2017-09-20T14:31:09.130Z,51.70
2017-09-20T14:33:37.292Z,51.20
2017-09-20T14:36:05.449Z,51.10
2017-09-20T14:38:33.600Z,53.00
2017-09-20T14:41:01.754Z,54.50
2017-09-20T14:43:30.652Z,55.80
2017-09-20T14:45:58.813Z,55.70
2017-09-20T14:48:26.975Z,55.10
2017-09-20T14:50:55.112Z,52.00
2017-09-20T14:53:23.251Z,47.20
2017-09-20T14:55:51.414Z,47.10
2017-09-20T14:58:20.337Z,44.00
2017-09-20T15:00:48.494Z,43.90
2017-09-20T15:03:16.658Z,42.60
2017-09-20T15:05:44.795Z,41.90
2017-09-20T15:08:13.712Z,41.20
2017-09-20T15:10:41.847Z,41.70
2017-09-20T15:13:10.053Z,40.40
2017-09-20T15:15:38.966Z,39.00
2017-09-20T15:18:07.110Z,39.40
2017-09-20T15:20:35.250Z,39.40
2017-09-20T15:23:03.410Z,38.30
2017-09-20T15:25:31.553Z,37.60
2017-09-20T15:27:59.695Z,37.60
2017-09-20T15:30:28.620Z,37.10
2017-09-20T15:32:56.744Z,37.00
2017-09-20T15:35:25.671Z,39.20
2017-09-20T15:37:53.809Z,39.20
2017-09-20T15:40:22.744Z,39.10
2017-09-20T15:42:50.888Z,39.10
2017-09-20T15:45:19.040Z,39.70
2017-09-20T15:47:47.946Z,40.30
2017-09-20T15:50:16.840Z,41.70
2017-09-20T15:52:45.022Z,41.60
2017-09-20T15:55:13.180Z,42.10
2017-09-20T15:57:41.333Z,43.70
2017-09-20T16:00:09.478Z,45.70
2017-09-20T16:02:37.622Z,47.90
2017-09-20T16:05:05.809Z,50.00
2017-09-20T16:07:33.998Z,50.00
2017-09-20T16:10:02.155Z,49.30
2017-09-20T16:12:30.282Z,50.40
2017-09-20T16:14:59.193Z,52.50
2017-09-20T16:17:27.353Z,52.50
2017-09-20T16:19:56.271Z,56.30
2017-09-20T16:22:24.424Z,56.30
2017-09-20T16:24:53.316Z,57.30
2017-09-20T16:27:21.466Z,57.30
2017-09-20T16:29:50.413Z,56.70
2017-09-20T16:32:18.545Z,56.80
2017-09-20T16:34:46.684Z,57.00
2017-09-20T16:37:16.652Z,57.90
2017-09-20T16:39:45.325Z,58.50
2017-09-20T16:42:14.741Z,58.70
2017-09-20T16:44:42.903Z,59.00
2017-09-20T16:47:11.036Z,59.50
2017-09-20T16:49:39.204Z,60.20
2017-09-20T16:52:07.349Z,60.20
2017-09-20T16:54:35.501Z,60.70
2017-09-20T16:57:03.636Z,61.70
2017-09-20T16:59:31.753Z,62.60
2017-09-20T17:01:59.935Z,62.30
2017-09-20T17:04:28.070Z,62.50
2017-09-20T17:06:57.021Z,63.70
2017-09-20T17:09:25.177Z,63.70
2017-09-20T17:11:53.346Z,64.40
2017-09-20T17:14:21.480Z,64.10
2017-09-20T17:16:50.390Z,63.70
2017-09-20T17:19:20.198Z,63.40
2017-09-20T17:21:48.337Z,63.40
2017-09-20T17:24:17.254Z,64.50
2017-09-20T17:26:45.403Z,64.50
2017-09-20T17:29:14.313Z,64.20
2017-09-20T17:31:42.464Z,64.10
2017-09-20T17:34:11.418Z,64.30
2017-09-20T17:36:39.563Z,64.30
2017-09-20T17:39:07.697Z,64.60
2017-09-20T17:41:36.602Z,64.60
2017-09-20T17:44:05.551Z,64.50
2017-09-20T17:46:33.690Z,64.50
2017-09-20T17:49:01.843Z,64.70
2017-09-20T17:51:30.001Z,65.00
2017-09-20T17:54:00.905Z,65.20
2017-09-20T17:56:29.031Z,65.20
2017-09-20T17:58:57.181Z,66.20
2017-09-20T18:01:26.086Z,66.30
2017-09-20T18:03:55.005Z,66.40
2017-09-20T18:06:23.138Z,66.40
2017-09-20T18:08:52.139Z,66.80
2017-09-20T18:11:21.063Z,66.70
2017-09-20T18:13:49.223Z,66.60
2017-09-20T18:16:17.972Z,66.50
2017-09-20T18:18:46.113Z,66.60
2017-09-20T18:21:14.272Z,66.60
2017-09-20T18:23:42.433Z,67.20
2017-09-20T18:26:10.590Z,67.00
2017-09-20T18:28:39.504Z,67.10
2017-09-20T18:31:07.645Z,67.10
2017-09-20T18:33:35.788Z,67.00
2017-09-20T18:36:03.953Z,66.80
2017-09-20T18:38:32.105Z,67.30
2017-09-20T18:41:00.294Z,67.10
2017-09-20T18:43:29.321Z,67.20
2017-09-20T18:45:58.229Z,67.70
2017-09-20T18:48:26.412Z,67.70
2017-09-20T18:50:54.588Z,67.70
2017-09-20T18:53:22.717Z,67.70
2017-09-20T18:55:50.884Z,67.70
2017-09-20T18:58:19.026Z,69.50
2017-09-20T19:00:47.941Z,68.90
2017-09-20T19:03:16.088Z,68.80
2017-09-20T19:05:45.045Z,69.10
2017-09-20T19:08:13.174Z,69.20
2017-09-20T19:10:41.330Z,70.10
2017-09-20T19:13:10.258Z,71.20
2017-09-20T19:15:38.397Z,71.20
2017-09-20T19:18:07.316Z,70.70
2017-09-20T19:20:35.472Z,70.70
2017-09-20T19:23:03.638Z,70.20
2017-09-20T19:25:32.551Z,70.70
2017-09-20T19:28:00.725Z,70.10
2017-09-20T19:30:28.873Z,70.10
2017-09-20T19:32:57.025Z,70.20
2017-09-20T19:35:25.943Z,70.60
2017-09-20T19:37:54.097Z,70.50
2017-09-20T19:40:22.311Z,70.60
2017-09-20T19:42:50.464Z,70.50
2017-09-20T19:45:18.667Z,70.90
2017-09-20T19:47:46.809Z,71.30
2017-09-20T19:50:14.969Z,71.30
2017-09-20T19:52:43.903Z,71.00
2017-09-20T19:55:12.086Z,70.90
2017-09-20T19:57:40.240Z,70.80
2017-09-20T20:00:08.399Z,70.90
2017-09-20T20:02:36.550Z,70.80
2017-09-20T20:05:05.469Z,72.00
2017-09-20T20:07:33.638Z,72.00
2017-09-20T20:10:01.781Z,71.80
2017-09-20T20:12:29.950Z,72.40
2017-09-20T20:14:58.855Z,73.70
2017-09-20T20:17:26.994Z,73.50
2017-09-20T20:19:55.141Z,73.40
2017-09-20T20:22:23.285Z,72.90
2017-09-20T20:24:52.227Z,72.80
2017-09-20T20:27:20.358Z,72.80
2017-09-20T20:29:48.526Z,72.70
2017-09-20T20:32:16.674Z,73.80
2017-09-20T20:34:44.828Z,74.20
2017-09-20T20:37:13.742Z,73.20
2017-09-20T20:39:41.861Z,73.20
2017-09-20T20:42:10.026Z,73.50
2017-09-20T20:44:38.162Z,72.80
2017-09-20T20:47:06.329Z,72.80
2017-09-20T20:49:34.477Z,72.60
2017-09-20T20:52:03.412Z,72.60
2017-09-20T20:54:31.553Z,72.40
2017-09-20T20:57:00.457Z,73.00
2017-09-20T20:59:28.625Z,73.00
2017-09-20T21:01:57.538Z,73.50
2017-09-20T21:04:25.674Z,73.50
2017-09-20T21:06:54.638Z,73.20
2017-09-20T21:09:23.310Z,73.10
2017-09-20T21:11:51.470Z,73.70
2017-09-20T21:14:19.622Z,73.70
2017-09-20T21:16:47.776Z,73.30
2017-09-20T21:19:16.707Z,73.40
2017-09-20T21:21:44.833Z,73.30
2017-09-20T21:24:13.725Z,72.70
2017-09-20T21:26:41.887Z,72.70
2017-09-20T21:29:10.790Z,72.90
2017-09-20T21:31:39.685Z,72.50
2017-09-20T21:34:07.841Z,72.50
2017-09-20T21:36:35.984Z,73.10
2017-09-20T21:39:04.156Z,74.00
2017-09-20T21:41:32.302Z,73.50
2017-09-20T21:44:00.460Z,73.70
2017-09-20T21:46:28.623Z,73.50
2017-09-20T21:48:56.752Z,73.20
2017-09-20T21:51:24.885Z,72.70
2017-09-20T21:53:53.049Z,72.10
2017-09-20T21:56:21.947Z,72.50
2017-09-20T21:58:50.109Z,72.30
2017-09-20T22:01:18.237Z,72.00
2017-09-20T22:03:46.371Z,71.60
2017-09-20T22:06:14.524Z,72.00
2017-09-20T22:08:42.681Z,71.90
2017-09-20T22:11:11.570Z,73.10
2017-09-20T22:13:39.718Z,73.10
2017-09-20T22:16:19.686Z,73.20
2017-09-20T22:19:00.345Z,73.00
2017-09-20T22:21:41.024Z,72.40
2017-09-20T22:24:21.749Z,72.50
2017-09-20T22:26:49.416Z,72.40
2017-09-20T22:29:17.600Z,72.20
2017-09-20T22:31:46.489Z,70.90
2017-09-20T22:34:14.645Z,70.80
2017-09-20T22:36:42.786Z,70.90
2017-09-20T22:39:10.929Z,70.80
2017-09-20T22:41:39.826Z,71.10
2017-09-20T22:44:07.978Z,70.90
2017-09-20T22:46:36.108Z,71.20
2017-09-20T22:49:04.250Z,71.50
2017-09-20T22:51:34.552Z,71.80
2017-09-20T22:54:03.467Z,72.10
2017-09-20T22:56:31.622Z,72.00
2017-09-20T22:59:00.525Z,72.80
2017-09-20T23:01:28.652Z,72.70
2017-09-20T23:03:56.794Z,73.10
2017-09-20T23:06:24.950Z,73.90
2017-09-20T23:08:53.087Z,73.60
2017-09-20T23:11:21.979Z,73.20
2017-09-20T23:13:50.134Z,72.60
2017-09-20T23:16:18.259Z,72.20
2017-09-20T23:18:46.416Z,73.00
2017-09-20T23:21:15.305Z,72.20
2017-09-20T23:23:44.210Z,72.10
2017-09-20T23:26:12.356Z,72.00
2017-09-20T23:28:40.496Z,73.10
2017-09-20T23:31:10.159Z,73.70
2017-09-20T23:33:38.304Z,73.70
2017-09-20T23:36:07.239Z,74.00
2017-09-20T23:38:35.368Z,73.40
2017-09-20T23:41:04.318Z,73.00
2017-09-20T23:43:32.444Z,73.00
2017-09-20T23:46:00.601Z,72.60
2017-09-20T23:48:29.509Z,72.00
2017-09-20T23:50:58.409Z,71.40
2017-09-20T23:53:26.620Z,71.40
2017-09-20T23:55:54.742Z,71.00
2017-09-20T23:58:24.193Z,70.60
